Stations météo

Publicité
Besancon, France (7288): Température de l'air & dewpoint: 20.06.2019 19:00:00 - 26.06.2019 19:00:00 (CEST)Besancon, France (7288): Température de l'air 5cm: 20.06.2019 19:00:00 - 26.06.2019 19:00:00 (CEST)Besancon, France (7288): Température de l'air -20cm & Température de l'air -100cm: 20.06.2019 19:00:00 - 26.06.2019 19:00:00 (CEST)Besancon, France (7288): Vitesse du vent & gusts: 20.06.2019 19:00:00 - 26.06.2019 19:00:00 (CEST)Besancon, France (7288): Direction du vent: 20.06.2019 19:00:00 - 26.06.2019 19:00:00 (CEST)Besancon, France (7288): reduced air pressure: 20.06.2019 19:00:00 - 26.06.2019 19:00:00 (CEST)Besancon, France (7288): Ensoleillement: 20.06.2019 19:00:00 - 26.06.2019 19:00:00 (CEST)Besancon, France (7288): Quantités de précipitations: 20.06.2019 19:00:00 - 26.06.2019 19:00:00 (CEST)
Date & Time tt [°C] td [°C] tt 5cm [°C] tt -20cm [°C] tt -100cm [°C] ff [km/h] ff [knt] fx [km/h] fx [knt] dd ppp [hPa] sd [min] rr [mm]
26.06.2019 19:00:00 34,5 18,9 33,7 23,0 16,9 5 3 14 8 NNW 1018,6 60 0,0
26.06.2019 18:00:00 35,3 18,4 37,0 22,9 17,0 5 3 13 7 NW 1018,8 60 0,0
26.06.2019 17:00:00 35,3 17,5 38,8 22,6 16,9 4 2 13 7 NNW 1019,2 60 0,0
26.06.2019 16:00:00 35,1 17,8 42,6 22,4 16,9 6 3 15 8 W 1019,5 60 0,0
26.06.2019 15:00:00 34,5 17,7 44,5 22,2 16,9 5 3 16 9 NW 1019,9 60 0,0
26.06.2019 14:00:00 33,2 20,7 42,7 22,1 16,9 8 4 15 8 NNW 1020,3 60 0,0
26.06.2019 13:00:00 32,0 19,6 43,2 21,9 16,9 9 5 16 9 NNW 1020,8 60 0,0
26.06.2019 12:00:00 31,1 18,8 39,8 21,9 16,9 6 3 17 9 NW 1021,0 60 0,0
26.06.2019 11:00:00 29,5 17,7 36,6 21,9 16,9 9 5 16 9 NNW 1021,3 60 0,0
26.06.2019 10:00:00 29,2 19,2 29,8 21,9 16,9 3 2 9 5 NNW 1021,2 60 0,0
26.06.2019 09:00:00 26,7 18,8 20,2 22,0 16,8 0 0 3 2 N 1021,3 60 0,0
26.06.2019 08:00:00 21,4 19,1 17,4 22,1 16,8 0 0 3 1 N 1021,7 60 0,0
26.06.2019 07:00:00 19,8 18,6 15,4 22,2 16,8 0 0 4 2 N 1021,7 15 0,0
26.06.2019 06:00:00 19,3 18,1 15,3 22,3 16,9 0 0 4 2 N 1021,5 0 0,0
26.06.2019 05:00:00 19,7 18,0 15,3 22,4 16,8 2 1 5 3 NNE 1021,2 0 0,0
26.06.2019 04:00:00 20,1 17,9 15,5 22,5 16,8 3 2 4 2 NNE 1021,2 0 0,0
26.06.2019 03:00:00 20,4 18,2 16,0 22,6 16,8 0 0 4 2 N 1021,1 0 0,0
26.06.2019 02:00:00 21,0 18,4 16,6 22,6 16,8 3 2 6 3 NNE 1021,1 0 0,0
26.06.2019 01:00:00 21,5 18,5 16,9 22,7 16,8 3 1 5 3 NNE 1021,0 0 0,0
26.06.2019 00:00:00 22,2 18,8 17,6 22,7 16,8 4 2 5 3 NNE 1021,0 0 0,0
25.06.2019 23:00:00 23,0 18,7 18,0 22,7 16,8 3 2 4 2 NNE 1020,4 0 0,0
25.06.2019 22:00:00 24,4 19,5 18,9 22,7 16,8 3 2 13 7 NNE 1019,5 1 0,0
25.06.2019 21:00:00 26,3 18,9 21,2 22,6 16,7 0 0 4 2 N 1018,9 0 0,0
25.06.2019 20:00:00 28,8 18,3 23,2 22,5 16,8 0 0 9 5 N 1018,3 12 0,0
25.06.2019 19:00:00 31,4 17,7 31,2 22,4 16,7 4 2 13 7 WSW 1017,8 47 0,0
25.06.2019 18:00:00 32,0 15,5 32,9 22,3 16,7 8 4 17 9 SW 1017,6 58 0,0
25.06.2019 17:00:00 31,4 17,7 31,6 22,1 16,7 3 2 11 6 W 1017,9 29 0,0
25.06.2019 16:00:00 30,7 17,0 33,3 21,9 16,7 6 3 14 8 W 1018,1 20 0,0
25.06.2019 15:00:00 31,0 17,0 36,5 21,7 16,7 8 4 14 8 W 1017,7 28 0,0
25.06.2019 14:00:00 31,2 16,0 36,8 21,6 16,6 6 3 16 9 W 1017,8 52 0,0
25.06.2019 13:00:00 30,9 16,5 40,4 21,4 16,6 4 2 17 9 WSW 1017,9 60 0,0
25.06.2019 12:00:00 29,8 15,9 37,9 21,4 16,6 8 5 20 11 SW 1018,1 60 0,0
25.06.2019 11:00:00 28,5 16,4 32,7 21,4 16,6 9 5 21 11 SW 1018,2 60 0,0
25.06.2019 10:00:00 26,8 15,8 28,8 21,4 16,6 6 4 16 9 SSW 1018,6 60 0,0
25.06.2019 09:00:00 25,0 16,4 20,6 21,5 16,6 2 1 6 3 SSW 1018,5 54 0,0
25.06.2019 08:00:00 20,7 16,5 16,4 21,6 16,6 0 0 3 1 N 1018,6 60 0,0
25.06.2019 07:00:00 18,2 15,8 14,0 21,7 16,6 0 0 5 3 N 1018,5 5 0,0
25.06.2019 06:00:00 17,8 15,8 13,8 21,7 16,6 3 2 6 4 NNE 1017,8 0 0,0
25.06.2019 05:00:00 18,8 16,4 14,3 21,8 16,6 3 2 5 3 NNE 1017,0 0 0,0
25.06.2019 04:00:00 19,2 16,6 15,1 21,9 16,6 0 0 4 2 N 1016,7 0 0,0
25.06.2019 03:00:00 19,6 17,2 15,1 22,0 16,6 2 1 5 3 NNE 1016,7 0 0,0
25.06.2019 02:00:00 20,0 17,2 15,2 22,0 16,6 2 1 5 3 NNE 1016,7 0 0,0
25.06.2019 01:00:00 21,2 17,8 16,1 22,1 16,6 0 0 3 1 N 1016,4 0 0,0
25.06.2019 00:00:00 22,2 17,8 16,5 22,1 16,6 0 0 3 2 N 1016,2 0 0,0
24.06.2019 23:00:00 23,6 17,8 17,5 22,1 16,6 0 0 5 3 N 1015,8 0 0,0
24.06.2019 22:00:00 25,0 18,0 19,0 22,0 16,5 0 0 5 3 N 1015,3 8 0,0
24.06.2019 21:00:00 26,6 18,7 23,3 21,9 16,6 2 1 9 5 NNE 1014,8 25 0,0
24.06.2019 20:00:00 27,9 17,4 25,6 21,8 16,5 5 3 12 7 NNE 1014,8 0 0,0
24.06.2019 19:00:00 29,1 17,9 28,5 21,6 16,5 7 4 16 8 NNE 1014,5 0 0,0
24.06.2019 18:00:00 29,9 16,0 30,4 21,5 16,5 6 3 17 9 NW 1014,7 36 0,0
24.06.2019 17:00:00 30,9 15,7 36,0 21,3 16,5 7 4 16 9 NW 1014,7 60 0,0
24.06.2019 16:00:00 30,9 17,2 40,1 21,1 16,5 7 4 15 8 NNW 1015,1 60 0,0
24.06.2019 15:00:00 30,2 15,9 41,1 20,9 16,5 6 3 17 9 NNW 1015,5 60 0,0
24.06.2019 14:00:00 29,8 14,7 41,8 20,7 16,5 5 3 17 9 NNW 1015,5 60 0,0
24.06.2019 13:00:00 29,8 14,0 42,3 20,6 16,5 3 2 11 6 WNW 1015,5 60 0,0
24.06.2019 12:00:00 29,0 14,8 37,2 20,5 16,5 4 2 9 5 N 1015,7 58 0,0
24.06.2019 11:00:00 28,1 12,4 33,7 20,5 16,4 3 1 8 5 E 1015,9 60 0,0
24.06.2019 10:00:00 26,2 15,3 27,6 20,6 16,4 3 1 7 4 E 1016,3 60 0,0
24.06.2019 09:00:00 23,3 15,6 16,8 20,7 16,4 2 1 8 4 ENE 1016,5 60 0,0
24.06.2019 08:00:00 18,4 16,2 13,1 20,8 16,4 0 0 5 3 N 1017,2 60 0,0
24.06.2019 07:00:00 16,1 15,1 11,7 20,9 16,5 4 2 5 3 NNE 1017,4 17 0,0
24.06.2019 06:00:00 16,2 14,9 11,4 21,0 16,4 3 2 4 2 NNE 1017,5 0 0,0
24.06.2019 05:00:00 16,8 15,3 11,8 21,1 16,5 2 1 4 2 NNE 1017,3 0 0,0
24.06.2019 04:00:00 17,6 15,8 13,0 21,2 16,4 0 0 3 2 N 1017,2 0 0,0
24.06.2019 03:00:00 18,2 16,2 13,4 21,2 16,4 0 0 4 2 N 1017,1 0 0,0
24.06.2019 02:00:00 19,0 16,4 14,2 21,3 16,4 0 0 4 2 N 1017,0 0 0,0
24.06.2019 01:00:00 19,4 16,6 14,5 21,3 16,4 0 0 4 2 N 1016,7 0 0,0
24.06.2019 00:00:00 19,8 16,8 15,0 21,3 16,4 0 0 6 4 N 1016,5 0 0,0
23.06.2019 23:00:00 20,9 16,7 16,2 21,2 16,4 3 2 6 4 N 1016,1 0 0,0
23.06.2019 22:00:00 22,2 16,9 17,3 21,2 16,4 0 0 10 5 N 1015,5 8 0,0
23.06.2019 21:00:00 24,3 17,5 21,9 21,1 16,4 2 1 13 7 NE 1014,9 43 0,0
23.06.2019 20:00:00 25,1 17,6 23,4 20,9 16,4 4 2 14 7 NNE 1014,3 17 0,0
23.06.2019 19:00:00 26,7 16,9 27,5 20,8 16,4 6 3 19 11 NNE 1013,9 39 0,0
23.06.2019 18:00:00 27,6 16,2 30,0 20,7 16,4 3 2 23 12 NE 1013,7 51 0,0
23.06.2019 17:00:00 26,8 17,6 32,9 20,4 16,4 13 7 26 14 N 1013,9 57 0,0
23.06.2019 16:00:00 27,1 16,4 36,9 20,3 16,4 10 5 22 12 N 1013,9 60 0,0
23.06.2019 15:00:00 26,6 14,7 37,3 20,1 16,3 10 5 18 10 N 1014,1 60 0,0
23.06.2019 14:00:00 26,5 15,8 39,4 19,9 16,3 5 3 17 9 NNE 1014,5 60 0,0
23.06.2019 13:00:00 25,5 15,8 39,5 19,8 16,4 6 3 20 11 NNE 1014,4 60 0,0
23.06.2019 12:00:00 24,3 15,2 35,8 19,8 16,3 4 2 17 9 N 1014,7 60 0,0
23.06.2019 11:00:00 22,6 15,4 29,4 19,8 16,3 6 4 23 12 NNE 1015,1 60 0,0
23.06.2019 10:00:00 20,4 15,8 24,7 19,9 16,3 10 5 24 13 NNE 1015,6 60 0,0
23.06.2019 09:00:00 18,8 15,7 14,2 19,9 16,3 5 3 16 9 NNE 1015,9 60 0,0
23.06.2019 08:00:00 15,4 14,9 11,7 20,1 16,3 0 0 8 4 N 1016,4 60 0,0
23.06.2019 07:00:00 14,2 13,7 10,0 20,2 16,3 0 0 6 3 N 1016,7 16 0,0
23.06.2019 06:00:00 13,7 13,1 9,7 20,3 16,3 0 0 4 2 N 1016,8 0 0,0
23.06.2019 05:00:00 14,2 13,6 10,0 20,4 16,3 0 0 4 2 N 1016,6 0 0,0
23.06.2019 04:00:00 14,5 13,9 10,6 20,5 16,3 0 0 5 3 N 1016,8 0 0,0
23.06.2019 03:00:00 15,1 14,3 11,0 20,6 16,3 0 0 4 2 N 1016,8 0 0,0
23.06.2019 02:00:00 15,7 14,9 11,5 20,6 16,3 0 0 5 3 N 1016,9 0 0,0
23.06.2019 01:00:00 16,3 15,2 12,0 20,6 16,3 0 0 4 2 N 1017,0 0 0,0
23.06.2019 00:00:00 17,4 15,9 12,8 20,6 16,3 0 0 5 3 N 1016,9 0 0,0
22.06.2019 23:00:00 18,8 16,0 15,7 20,6 16,3 2 1 7 4 NNE 1016,6 0 0,0
22.06.2019 22:00:00 20,3 15,7 18,1 20,6 16,3 2 1 12 7 N 1016,4 8 0,0
22.06.2019 21:00:00 22,1 14,5 20,0 20,6 16,3 3 2 10 5 WNW 1015,8 38 0,0
22.06.2019 20:00:00 23,3 14,6 23,6 20,4 16,3 4 2 14 8 W 1015,3 51 0,0
22.06.2019 19:00:00 23,6 14,3 27,5 20,4 16,3 8 4 15 8 W 1015,0 60 0,0
22.06.2019 18:00:00 23,9 13,7 31,1 20,2 16,3 7 4 22 12 W 1015,1 60 0,0
22.06.2019 17:00:00 23,5 13,9 26,1 20,1 16,3 6 3 20 11 WNW 1015,7 34 0,0
22.06.2019 16:00:00 23,6 14,6 28,0 20,0 16,2 7 4 18 10 SW 1015,5 41 0,0
22.06.2019 15:00:00 21,9 15,0 28,3 19,9 16,2 8 5 19 10 NNW 1015,9 18 0,0
22.06.2019 14:00:00 21,9 14,0 30,4 19,9 16,2 5 3 14 8 W 1016,4 21 0,0
22.06.2019 13:00:00 21,3 13,5 26,0 19,9 16,2 3 2 11 6 SE 1016,5 11 0,0
22.06.2019 12:00:00 19,6 13,8 24,4 19,8 16,2 5 3 11 6 WSW 1016,7 0 0,0
22.06.2019 11:00:00 19,6 14,4 23,7 19,8 16,2 0 0 10 6 N 1016,3 27 0,0
22.06.2019 10:00:00 17,3 13,8 20,4 19,9 16,2 5 3 11 6 W 1016,5 16 0,0
22.06.2019 09:00:00 17,2 13,5 18,6 20,0 16,2 6 4 15 8 SW 1016,8 21 0,0
22.06.2019 08:00:00 16,8 13,7 16,3 20,0 16,2 8 4 15 8 SW 1016,5 0 0,0
22.06.2019 07:00:00 16,3 13,8 14,3 20,1 16,2 0 0 7 4 N 1016,2 0 0,0
22.06.2019 06:00:00 15,9 13,0 13,9 20,2 16,2 3 1 10 5 NNE 1015,8 0 0,0
22.06.2019 05:00:00 16,1 12,3 14,0 20,2 16,2 2 1 10 5 NE 1016,0 0 0,0
22.06.2019 04:00:00 16,4 11,5 13,8 20,3 16,2 3 2 16 8 NE 1016,3 0 0,0
22.06.2019 03:00:00 16,1 11,3 13,7 20,4 16,2 4 2 13 7 NNE 1016,4 0 0,0
22.06.2019 02:00:00 16,2 10,7 13,5 20,4 16,2 4 2 10 6 NNE 1017,1 0 0,0
22.06.2019 01:00:00 16,6 11,3 13,5 20,5 16,1 3 1 18 10 NNE 1017,3 0 0,0
22.06.2019 00:00:00 17,7 11,9 15,1 20,5 16,1 8 5 31 17 NNE 1017,1 0 0,0
21.06.2019 23:00:00 18,8 13,4 16,6 20,5 16,1 13 7 28 15 NNE 1016,9 0 0,2
21.06.2019 22:00:00 19,2 14,5 16,9 20,5 16,1 8 4 19 10 NNE 1016,7 0 0,0
21.06.2019 21:00:00 20,0 16,0 18,3 20,5 16,1 4 2 10 5 NNE 1016,5 0 0,0
21.06.2019 20:00:00 20,8 15,8 19,7 20,5 16,1 2 1 10 6 NNE 1016,2 2 0,0
21.06.2019 19:00:00 20,6 16,6 20,0 20,4 16,1 0 0 9 5 N 1015,9 0 0,2
21.06.2019 18:00:00 21,0 16,8 19,8 20,4 16,1 4 2 14 8 NNE 1015,8 0 0,0
21.06.2019 17:00:00 22,2 14,8 22,1 20,2 16,1 7 4 17 9 N 1016,0 0 0,0
21.06.2019 16:00:00 22,2 14,3 21,9 20,1 16,1 6 3 23 13 NNE 1016,2 0 0,0
21.06.2019 15:00:00 22,9 14,5 26,8 20,0 16,1 12 7 25 14 NNE 1016,2 3 0,0
21.06.2019 14:00:00 23,2 14,5 30,8 19,9 16,1 13 7 29 15 N 1016,2 48 0,0
21.06.2019 13:00:00 22,9 14,2 31,4 19,8 16,0 14 8 32 17 NNE 1016,5 47 0,0
21.06.2019 12:00:00 22,6 14,9 29,4 19,8 16,0 8 5 25 14 NNE 1016,7 55 0,0
21.06.2019 11:00:00 21,2 15,5 25,5 19,8 16,0 8 4 20 11 NNE 1017,0 34 0,0
21.06.2019 10:00:00 19,8 14,2 22,6 19,9 16,0 6 4 19 10 NNE 1017,0 34 0,0
21.06.2019 09:00:00 18,3 14,2 18,3 20,0 16,0 6 3 14 7 N 1017,4 34 0,0
21.06.2019 08:00:00 16,6 14,2 15,3 20,0 16,0 6 3 14 7 NNE 1017,2 21 0,0
21.06.2019 07:00:00 14,3 13,7 11,7 20,2 16,0 3 1 5 3 N 1017,4 7 0,0
21.06.2019 06:00:00 13,4 12,8 10,1 20,2 16,0 0 0 5 3 N 1017,6 0 0,0
21.06.2019 05:00:00 13,4 12,6 9,9 20,4 16,0 0 0 5 3 N 1017,6 0 0,0
21.06.2019 04:00:00 13,6 12,7 9,8 20,5 16,0 0 0 4 2 N 1017,5 0 0,0
21.06.2019 03:00:00 14,3 13,0 10,7 20,5 16,0 0 0 6 3 N 1017,6 0 0,0
21.06.2019 02:00:00 15,2 13,4 12,5 20,6 15,9 3 2 5 3 NNE 1017,3 0 0,0
21.06.2019 01:00:00 16,1 13,6 13,2 20,7 16,0 2 1 6 3 NNE 1017,4 0 0,0
21.06.2019 00:00:00 16,5 13,8 12,5 20,7 16,0 2 1 5 3 NNE 1017,5 0 0,0
20.06.2019 23:00:00 16,9 13,4 12,9 20,7 16,0 3 2 19 11 NNE 1016,9 0 0,0
20.06.2019 22:00:00 19,0 13,4 15,4 20,7 15,9 8 4 13 7 N 1016,3 0 0,0
20.06.2019 21:00:00 20,0 13,2 18,0 20,6 15,9 6 3 22 12 NNW 1015,6 32 0,0
20.06.2019 20:00:00 21,7 13,8 21,7 20,6 15,9 11 6 25 14 NW 1014,8 33 0,0
20.06.2019 19:00:00 22,6 12,5 23,1 20,5 15,9 9 5 19 10 W 1014,1 9 0,0

tt = Température de l'air
td = dewpoint
tt 5cm = Température de l'air 5cm
tt -20cm = Température de l'air -20cm
tt -100cm = Température de l'air -100cm
ff = Vitesse du vent
fx = gusts
dd = Direction du vent
ppp = reduced air pressure
sd = Ensoleillement
rr = Quantités de précipitations

stations d'obs. à proximité